createdAt,value
2023-02-01T00:01:18.837Z,97739.22
2023-02-01T00:03:45.782Z,97742.06
2023-02-01T00:06:12.758Z,97749.03
2023-02-01T00:08:39.690Z,97752.38
2023-02-01T00:11:12.347Z,97746.97
2023-02-01T00:13:42.565Z,97746.81
2023-02-01T00:16:17.436Z,97748.66
2023-02-01T00:18:51.039Z,97741.16
2023-02-01T00:21:20.633Z,97741.97
2023-02-01T00:23:47.745Z,97750.56
2023-02-01T00:26:26.151Z,97755.94
2023-02-01T00:28:53.102Z,97740.69
2023-02-01T00:31:20.357Z,97746.88
2023-02-01T00:33:50.445Z,97750.34
2023-02-01T00:36:18.064Z,97747.69
2023-02-01T00:38:45.477Z,97749.22
2023-02-01T00:41:18.566Z,97750.03
2023-02-01T00:43:46.130Z,97754.28
2023-02-01T00:46:14.307Z,97748.06
2023-02-01T00:48:41.894Z,97752.38
2023-02-01T00:51:11.692Z,97747.97
2023-02-01T00:53:38.967Z,97748.72
2023-02-01T00:56:06.986Z,97755.53
2023-02-01T00:58:34.570Z,97752.91
2023-02-01T01:01:16.615Z,97766.84
2023-02-01T01:03:47.027Z,97755.19
2023-02-01T01:06:17.011Z,97752.53
2023-02-01T01:08:44.677Z,97754.28
2023-02-01T01:11:19.164Z,97759.25
2023-02-01T01:13:49.291Z,97752.56
2023-02-01T01:16:16.782Z,97754.22
2023-02-01T01:18:44.713Z,97753.31
2023-02-01T01:21:15.011Z,97748.16
2023-02-01T01:23:42.539Z,97753.22
2023-02-01T01:26:14.111Z,97750.97
2023-02-01T01:28:41.168Z,97751.84
2023-02-01T01:31:12.922Z,97751.53
2023-02-01T01:33:40.387Z,97740.06
2023-02-01T01:36:12.157Z,97744.66
2023-02-01T01:38:42.527Z,97744.72
2023-02-01T01:41:14.919Z,97747.47
2023-02-01T01:43:50.484Z,97745.53
2023-02-01T01:46:20.973Z,97742.50
2023-02-01T01:48:54.603Z,97744.16
2023-02-01T01:51:24.652Z,97732.41
2023-02-01T01:54:00.896Z,97754.69
2023-02-01T01:56:30.465Z,97754.97
2023-02-01T01:58:58.454Z,97751.38
2023-02-01T02:01:25.659Z,97752.06
2023-02-01T02:03:53.571Z,97757.88
2023-02-01T02:06:26.458Z,97751.88
2023-02-01T02:08:53.608Z,97758.97
2023-02-01T02:11:20.637Z,97758.28
2023-02-01T02:13:55.608Z,97751.00
2023-02-01T02:16:48.729Z,97765.50
2023-02-01T02:19:33.355Z,97759.44
2023-02-01T02:22:30.763Z,97758.53
2023-02-01T02:25:03.325Z,97762.69
2023-02-01T02:27:36.204Z,97753.97
2023-02-01T02:30:14.873Z,97754.69
2023-02-01T02:33:18.772Z,97756.22
2023-02-01T02:36:04.792Z,97756.22
2023-02-01T02:38:42.775Z,97754.09
2023-02-01T02:41:35.109Z,97746.78
2023-02-01T02:44:31.896Z,97746.69
2023-02-01T02:47:27.389Z,97753.34
2023-02-01T02:50:31.168Z,97752.44
2023-02-01T02:53:35.913Z,97751.38
2023-02-01T02:56:25.385Z,97743.97
2023-02-01T02:59:12.596Z,97741.38
2023-02-01T03:01:58.979Z,97752.53
2023-02-01T03:04:26.747Z,97751.38
2023-02-01T03:06:55.387Z,97748.72
2023-02-01T03:09:36.582Z,97748.66
2023-02-01T03:12:27.389Z,97747.97
2023-02-01T03:15:00.814Z,97748.88
2023-02-01T03:17:33.686Z,97749.03
2023-02-01T03:20:04.403Z,97749.44
2023-02-01T03:22:35.206Z,97751.09
2023-02-01T03:25:11.528Z,97758.75
2023-02-01T03:27:56.034Z,97762.34
2023-02-01T03:30:27.000Z,97750.69
2023-02-01T03:33:00.378Z,97754.31
2023-02-01T03:35:49.775Z,97757.63
2023-02-01T03:38:32.307Z,97754.00
2023-02-01T03:41:10.092Z,97755.56
2023-02-01T03:43:49.457Z,97762.47
2023-02-01T03:46:23.762Z,97761.66
2023-02-01T03:48:53.206Z,97758.09
2023-02-01T03:51:23.376Z,97775.59
2023-02-01T03:53:51.187Z,97788.59
2023-02-01T03:56:21.419Z,97792.22
2023-02-01T03:59:00.076Z,97795.84
2023-02-01T04:01:32.356Z,97794.50
2023-02-01T04:03:59.973Z,97784.94
2023-02-01T04:06:27.293Z,97783.97
2023-02-01T04:08:59.117Z,97787.38
2023-02-01T04:11:26.124Z,97787.06
2023-02-01T04:13:53.112Z,97791.03
2023-02-01T04:16:20.174Z,97794.06
2023-02-01T04:18:47.185Z,97798.28
2023-02-01T04:21:14.066Z,97795.53
2023-02-01T04:23:40.989Z,97796.88
2023-02-01T04:26:07.936Z,97797.38
2023-02-01T04:28:34.919Z,97800.56
2023-02-01T04:31:01.893Z,97796.78
2023-02-01T04:33:28.948Z,97798.75
2023-02-01T04:35:55.863Z,97806.94
2023-02-01T04:38:22.946Z,97812.59
2023-02-01T04:40:50.414Z,97817.47
2023-02-01T04:43:18.688Z,97820.19
2023-02-01T04:45:50.264Z,97819.72
2023-02-01T04:48:18.529Z,97814.34
2023-02-01T04:50:49.851Z,97814.22
2023-02-01T04:53:17.120Z,97818.16
2023-02-01T04:55:44.726Z,97811.84
2023-02-01T04:58:12.031Z,97818.50
2023-02-01T05:00:38.969Z,97826.72
2023-02-01T05:03:05.901Z,97827.94
2023-02-01T05:05:33.095Z,97834.09
2023-02-01T05:08:00.178Z,97847.38
2023-02-01T05:10:27.032Z,97838.59
2023-02-01T05:13:12.302Z,97851.81
2023-02-01T05:15:39.352Z,97836.19
2023-02-01T05:18:06.326Z,97832.88
2023-02-01T05:20:33.310Z,97841.13
2023-02-01T05:23:00.402Z,97838.78
2023-02-01T05:25:27.324Z,97842.16
2023-02-01T05:27:54.833Z,97838.88
2023-02-01T05:30:22.442Z,97843.25
2023-02-01T05:32:53.964Z,97842.28
2023-02-01T05:35:21.563Z,97842.41
2023-02-01T05:37:48.576Z,97843.19
2023-02-01T05:40:15.609Z,97844.56
2023-02-01T05:42:42.507Z,97850.84
2023-02-01T05:45:09.858Z,97847.28
2023-02-01T05:47:36.889Z,97850.75
2023-02-01T05:50:05.610Z,97851.28
2023-02-01T05:52:33.389Z,97857.53
2023-02-01T05:55:00.550Z,97861.50
2023-02-01T05:57:27.474Z,97859.19
2023-02-01T05:59:54.384Z,97859.63
2023-02-01T06:02:22.814Z,97863.13
2023-02-01T06:04:49.755Z,97864.69
2023-02-01T06:07:16.719Z,97862.06
2023-02-01T06:09:43.681Z,97862.25
2023-02-01T06:12:10.634Z,97868.03
2023-02-01T06:14:38.237Z,97863.22
2023-02-01T06:17:06.714Z,97873.53
2023-02-01T06:19:33.658Z,97875.53
2023-02-01T06:22:00.767Z,97876.69
2023-02-01T06:24:27.668Z,97879.66
2023-02-01T06:26:54.698Z,97872.69
2023-02-01T06:29:21.698Z,97873.19
2023-02-01T06:31:48.652Z,97873.94
2023-02-01T06:34:15.585Z,97875.72
2023-02-01T06:36:42.518Z,97878.97
2023-02-01T06:39:09.434Z,97876.41
2023-02-01T06:41:36.351Z,97875.09
2023-02-01T06:44:03.470Z,97886.19
2023-02-01T06:46:30.551Z,97887.03
2023-02-01T06:48:57.620Z,97880.34
2023-02-01T06:51:27.160Z,97878.06
2023-02-01T06:53:54.109Z,97881.06
2023-02-01T06:56:21.841Z,97889.88
2023-02-01T06:58:49.385Z,97889.53
2023-02-01T07:01:16.897Z,97896.03
2023-02-01T07:03:47.693Z,97892.47
2023-02-01T07:06:14.605Z,97894.06
2023-02-01T07:08:41.456Z,97897.25
2023-02-01T07:11:13.544Z,97892.00
2023-02-01T07:13:40.993Z,97886.94
2023-02-01T07:16:12.207Z,97898.13
2023-02-01T07:18:39.874Z,97895.53
2023-02-01T07:21:07.279Z,97899.44
2023-02-01T07:23:34.338Z,97906.72
2023-02-01T07:26:04.280Z,97907.56
2023-02-01T07:28:33.672Z,97900.72
2023-02-01T07:31:16.343Z,97894.56
2023-02-01T07:33:43.527Z,97899.34
2023-02-01T07:36:14.185Z,97910.84
2023-02-01T07:38:41.269Z,97908.53
2023-02-01T07:41:09.249Z,97914.28
2023-02-01T07:43:36.282Z,97923.53
2023-02-01T07:46:05.220Z,97925.78
2023-02-01T07:48:32.870Z,97916.03
2023-02-01T07:51:04.106Z,97917.28
2023-02-01T07:53:33.093Z,97923.03
2023-02-01T07:56:00.395Z,97920.63
2023-02-01T07:58:27.600Z,97922.91
2023-02-01T08:01:12.908Z,97927.19
2023-02-01T08:03:39.862Z,97925.06
2023-02-01T08:06:07.508Z,97931.63
2023-02-01T08:08:34.804Z,97919.75
2023-02-01T08:11:04.342Z,97918.16
2023-02-01T08:13:31.673Z,97913.81
2023-02-01T08:15:59.982Z,97909.94
2023-02-01T08:18:27.153Z,97921.22
2023-02-01T08:20:54.229Z,97933.63
2023-02-01T08:23:22.133Z,97934.44
2023-02-01T08:25:49.052Z,97930.81
2023-02-01T08:28:16.529Z,97936.34
2023-02-01T08:30:43.578Z,97926.72
2023-02-01T08:33:10.950Z,97930.59
2023-02-01T08:35:43.765Z,97939.31
2023-02-01T08:38:11.562Z,97935.72
2023-02-01T08:40:38.500Z,97940.81
2023-02-01T08:43:05.634Z,97938.84
2023-02-01T08:45:33.248Z,97941.34
2023-02-01T08:48:00.378Z,97939.44
2023-02-01T08:50:27.798Z,97935.44
2023-02-01T08:52:55.235Z,97938.22
2023-02-01T08:55:22.147Z,97938.59
2023-02-01T08:57:49.234Z,97940.75
2023-02-01T09:00:18.352Z,97932.81
2023-02-01T09:02:45.974Z,97936.25
2023-02-01T09:05:13.025Z,97945.34
2023-02-01T09:07:39.992Z,97951.63
2023-02-01T09:10:07.672Z,97939.03
2023-02-01T09:12:35.564Z,97941.72
2023-02-01T09:15:03.706Z,97944.72
2023-02-01T09:17:31.320Z,97946.09
2023-02-01T09:19:58.433Z,97943.06
2023-02-01T09:22:25.493Z,97939.47
2023-02-01T09:24:55.135Z,97927.75
2023-02-01T09:27:22.477Z,97929.03
2023-02-01T09:29:53.919Z,97913.88
2023-02-01T09:32:25.129Z,97919.06
2023-02-01T09:34:53.641Z,97913.75
2023-02-01T09:37:21.508Z,97926.88
2023-02-01T09:39:48.754Z,97921.31
2023-02-01T09:42:41.208Z,97914.69
2023-02-01T10:17:16.436Z,97868.69
2023-02-01T10:19:53.322Z,97865.50
2023-02-01T10:23:08.752Z,97859.72
2023-02-01T10:25:55.409Z,97856.28
2023-02-01T10:28:25.392Z,97854.25
2023-02-01T10:30:59.606Z,97851.41
2023-02-01T10:33:42.353Z,97851.78
2023-02-01T10:36:18.279Z,97850.06
2023-02-01T10:38:45.650Z,97841.09
2023-02-01T10:41:22.451Z,97841.41
2023-02-01T10:43:54.641Z,97839.34
2023-02-01T10:46:23.645Z,97826.63
2023-02-01T10:48:53.650Z,97833.81
2023-02-01T10:51:39.674Z,97829.03
2023-02-01T10:54:17.280Z,97827.47
2023-02-01T10:56:48.612Z,97825.19
2023-02-01T10:59:21.519Z,97819.50
2023-02-01T11:01:50.737Z,97830.06
2023-02-01T11:04:21.231Z,97820.88
2023-02-01T11:06:53.777Z,97826.69
2023-02-01T11:09:22.539Z,97821.94
2023-02-01T11:11:49.433Z,97817.31
2023-02-01T11:14:35.147Z,97836.59
2023-02-01T11:17:19.552Z,97827.63
2023-02-01T11:19:47.939Z,97831.00
2023-02-01T11:22:15.919Z,97821.34
2023-02-01T11:24:46.453Z,97809.69
2023-02-01T11:27:27.099Z,97806.88
2023-02-01T11:30:01.454Z,97809.31
2023-02-01T11:32:29.047Z,97794.22
2023-02-01T11:35:06.789Z,97799.44
2023-02-01T11:37:38.213Z,97801.75
2023-02-01T11:40:26.493Z,97800.78
2023-02-01T11:43:02.375Z,97794.38
2023-02-01T11:45:34.903Z,97792.66
2023-02-01T11:48:02.371Z,97795.16
2023-02-01T11:50:45.523Z,97800.53
2023-02-01T11:54:07.527Z,97789.22
2023-02-01T11:57:06.521Z,97789.66
2023-02-01T11:59:45.865Z,97794.81
2023-02-01T12:02:36.777Z,97792.03
2023-02-01T12:05:25.795Z,97796.03
2023-02-01T12:08:03.127Z,97807.44
2023-02-01T12:10:57.534Z,97800.41
2023-02-01T12:13:33.865Z,97791.47
2023-02-01T12:16:18.306Z,97799.56
2023-02-01T12:19:11.087Z,97790.22
2023-02-01T12:22:13.195Z,97787.06
2023-02-01T12:24:51.525Z,97792.47
2023-02-01T12:27:46.030Z,97793.75
2023-02-01T12:30:18.783Z,97786.91
2023-02-01T12:33:05.529Z,97779.97
2023-02-01T12:35:45.819Z,97779.72
2023-02-01T12:38:46.643Z,97787.03
2023-02-01T12:41:48.037Z,97781.22
2023-02-01T12:44:40.824Z,97779.22
2023-02-01T12:47:31.939Z,97781.06
2023-02-01T12:50:23.759Z,97771.94
2023-02-01T12:52:53.664Z,97777.84
2023-02-01T12:55:37.428Z,97770.78
2023-02-01T12:58:14.047Z,97780.19
2023-02-01T13:00:42.942Z,97772.81
2023-02-01T13:03:41.096Z,97774.88
2023-02-01T13:06:15.372Z,97766.44
2023-02-01T13:08:54.334Z,97761.13
2023-02-01T13:11:41.739Z,97759.91
2023-02-01T13:14:27.323Z,97759.50
2023-02-01T13:17:06.996Z,97762.44
2023-02-01T13:19:36.842Z,97775.84
2023-02-01T13:22:13.458Z,97759.00
2023-02-01T13:24:49.201Z,97761.38
2023-02-01T13:27:18.361Z,97754.28
2023-02-01T13:30:00.139Z,97762.13
2023-02-01T13:33:53.644Z,97764.97
2023-02-01T13:35:48.991Z,97763.00
2023-02-01T13:38:43.138Z,97763.72
2023-02-01T13:41:27.948Z,97763.03
2023-02-01T13:44:00.549Z,97765.78
2023-02-01T13:46:28.580Z,97761.66
2023-02-01T13:49:01.417Z,97767.47
2023-02-01T13:51:49.543Z,97763.09
2023-02-01T13:54:32.715Z,97765.22
2023-02-01T13:57:01.588Z,97773.06
2023-02-01T13:59:52.156Z,97756.63
2023-02-01T14:02:43.423Z,97772.25
2023-02-01T14:05:30.585Z,97781.53
2023-02-01T14:08:06.513Z,97787.84
2023-02-01T14:10:51.936Z,97787.06
2023-02-01T14:13:33.595Z,97783.72
2023-02-01T14:16:03.288Z,97785.44
2023-02-01T14:18:36.023Z,97782.91
2023-02-01T14:21:24.239Z,97770.41
2023-02-01T14:23:54.217Z,97777.38
2023-02-01T14:26:26.102Z,97771.13
2023-02-01T14:29:01.191Z,97775.63
2023-02-01T14:31:45.795Z,97765.28
2023-02-01T14:34:37.081Z,97768.41
2023-02-01T14:37:07.863Z,97770.41
2023-02-01T14:40:05.283Z,97778.34
2023-02-01T14:42:34.834Z,97776.00
2023-02-01T14:45:28.716Z,97775.91
2023-02-01T14:48:15.805Z,97778.63
2023-02-01T14:50:44.425Z,97784.38
2023-02-01T14:53:11.753Z,97784.25
2023-02-01T14:56:10.216Z,97776.19
2023-02-01T14:58:45.245Z,97769.59
2023-02-01T15:01:27.749Z,97777.38
2023-02-01T15:04:12.169Z,97778.59
2023-02-01T15:06:58.568Z,97783.47
2023-02-01T15:09:33.488Z,97785.50
2023-02-01T15:12:06.613Z,97787.41
2023-02-01T15:14:50.090Z,97786.78
2023-02-01T15:17:21.678Z,97781.06
2023-02-01T15:20:00.358Z,97784.81
2023-02-01T15:22:28.886Z,97781.25
2023-02-01T15:25:05.487Z,97783.75
2023-02-01T15:27:33.247Z,97780.28
2023-02-01T15:30:17.130Z,97775.16
2023-02-01T15:32:44.110Z,97774.34
2023-02-01T15:35:44.482Z,97776.25
2023-02-01T15:38:29.492Z,97775.88
2023-02-01T15:41:15.709Z,97778.47
2023-02-01T15:43:48.708Z,97773.16
2023-02-01T15:46:20.790Z,97780.28
2023-02-01T15:48:54.619Z,97778.31
2023-02-01T15:51:27.877Z,97791.59
2023-02-01T15:54:01.811Z,97788.97
2023-02-01T15:56:35.878Z,97797.25
2023-02-01T15:59:07.286Z,97784.63
2023-02-01T16:01:40.099Z,97788.03
2023-02-01T16:04:27.440Z,97797.09
2023-02-01T16:06:57.391Z,97801.63
2023-02-01T16:09:35.837Z,97806.81
2023-02-01T16:12:04.784Z,97797.31
2023-02-01T16:14:33.014Z,97804.97
2023-02-01T16:17:00.602Z,97800.06
2023-02-01T16:19:29.401Z,97807.56
2023-02-01T16:21:57.467Z,97803.44
2023-02-01T16:24:27.044Z,97806.09
2023-02-01T16:26:54.121Z,97811.13
2023-02-01T16:29:22.715Z,97801.19
2023-02-01T16:31:50.379Z,97802.59
2023-02-01T16:34:18.745Z,97807.84
2023-02-01T16:36:52.977Z,97807.56
2023-02-01T16:39:21.210Z,97804.44
2023-02-01T16:41:48.876Z,97804.56
2023-02-01T16:44:16.383Z,97799.91
2023-02-01T16:46:46.153Z,97798.66
2023-02-01T16:49:21.986Z,97789.81
2023-02-01T16:51:51.077Z,97797.41
2023-02-01T16:54:17.966Z,97787.13
2023-02-01T16:56:46.768Z,97795.84
2023-02-01T16:59:14.572Z,97795.66
2023-02-01T17:01:43.613Z,97793.97
2023-02-01T17:04:11.189Z,97785.25
2023-02-01T17:06:39.194Z,97786.03
2023-02-01T17:09:06.942Z,97787.09
2023-02-01T17:11:34.036Z,97787.75
2023-02-01T17:14:15.964Z,97784.44
2023-02-01T17:16:45.191Z,97789.00
2023-02-01T17:19:16.310Z,97787.75
2023-02-01T17:21:47.457Z,97789.84
2023-02-01T17:24:15.887Z,97792.13
2023-02-01T17:26:43.602Z,97793.56
2023-02-01T17:29:11.290Z,97792.13
2023-02-01T17:31:41.588Z,97799.19
2023-02-01T17:34:11.365Z,97802.19
2023-02-01T17:36:40.113Z,97798.16
2023-02-01T17:39:07.081Z,97807.16
2023-02-01T17:41:34.619Z,97803.00
2023-02-01T17:44:01.653Z,97796.75
2023-02-01T17:46:28.786Z,97808.56
2023-02-01T17:48:56.325Z,97818.44
2023-02-01T17:51:28.548Z,97808.28
2023-02-01T17:53:55.726Z,97808.28
2023-02-01T17:56:25.650Z,97819.41
2023-02-01T17:58:52.670Z,97815.94
2023-02-01T18:01:21.038Z,97812.38
2023-02-01T18:03:48.584Z,97815.88
2023-02-01T18:06:18.321Z,97814.66
2023-02-01T18:08:46.231Z,97813.69
2023-02-01T18:11:16.396Z,97816.81
2023-02-01T18:13:43.832Z,97811.22
2023-02-01T18:16:34.923Z,97812.47
2023-02-01T18:19:02.899Z,97815.81
2023-02-01T18:21:34.653Z,97811.84
2023-02-01T18:24:02.110Z,97811.22
2023-02-01T18:26:29.387Z,97810.09
2023-02-01T18:28:56.333Z,97813.59
2023-02-01T18:31:26.771Z,97814.31
2023-02-01T18:33:56.041Z,97819.31
2023-02-01T18:36:23.716Z,97820.78
2023-02-01T18:38:51.006Z,97823.06
2023-02-01T18:41:23.257Z,97821.00
2023-02-01T18:43:52.172Z,97815.56
2023-02-01T18:46:19.878Z,97812.44
2023-02-01T18:48:46.818Z,97820.53
2023-02-01T18:51:19.917Z,97827.44
2023-02-01T18:53:49.696Z,97819.63
2023-02-01T18:56:20.666Z,97825.25
2023-02-01T18:58:47.674Z,97816.34
2023-02-01T19:01:18.732Z,97807.13
2023-02-01T19:03:54.312Z,97812.03
2023-02-01T19:06:32.149Z,97812.56
2023-02-01T19:08:59.034Z,97811.75
2023-02-01T19:11:26.041Z,97813.09
2023-02-01T19:13:53.256Z,97816.16
2023-02-01T19:16:20.213Z,97813.25
2023-02-01T19:18:52.194Z,97813.03
2023-02-01T19:21:19.181Z,97799.66
2023-02-01T19:23:46.159Z,97808.13
2023-02-01T19:26:15.331Z,97802.94
2023-02-01T19:28:47.106Z,97801.25
2023-02-01T19:31:15.093Z,97801.66
2023-02-01T19:33:42.104Z,97802.38
2023-02-01T19:36:09.928Z,97803.66
2023-02-01T19:38:37.571Z,97801.81
2023-02-01T19:41:04.749Z,97809.22
2023-02-01T19:43:32.777Z,97797.75
2023-02-01T19:46:02.843Z,97802.91
2023-02-01T19:48:31.440Z,97801.59
2023-02-01T19:50:59.254Z,97806.03
2023-02-01T19:53:28.058Z,97802.50
2023-02-01T19:55:57.033Z,97808.63
2023-02-01T19:58:25.664Z,97809.97
2023-02-01T20:00:56.227Z,97812.34
2023-02-01T20:03:24.271Z,97807.50
2023-02-01T20:05:55.535Z,97805.59
2023-02-01T20:08:23.285Z,97811.44
2023-02-01T20:10:50.530Z,97809.38
2023-02-01T20:13:17.491Z,97811.94
2023-02-01T20:15:44.926Z,97814.66
2023-02-01T20:18:12.349Z,97818.38
2023-02-01T20:20:40.690Z,97813.38
2023-02-01T20:23:07.651Z,97815.06
2023-02-01T20:25:37.832Z,97813.84
2023-02-01T20:28:04.963Z,97815.72
2023-02-01T20:30:32.664Z,97811.44
2023-02-01T20:32:59.771Z,97817.16
2023-02-01T20:35:27.006Z,97816.69
2023-02-01T20:37:54.395Z,97816.13
2023-02-01T20:40:21.509Z,97814.78
2023-02-01T20:42:48.893Z,97813.41
2023-02-01T20:45:16.327Z,97819.28
2023-02-01T20:47:43.430Z,97823.38
2023-02-01T20:50:11.066Z,97815.31
2023-02-01T20:52:38.123Z,97817.81
2023-02-01T20:55:05.443Z,97820.53
2023-02-01T20:57:32.918Z,97818.06
2023-02-01T20:59:59.857Z,97810.28
2023-02-01T21:02:27.060Z,97808.38
2023-02-01T21:04:53.981Z,97813.16
2023-02-01T21:07:21.147Z,97810.81
2023-02-01T21:09:48.043Z,97804.31
2023-02-01T21:12:14.939Z,97811.50
2023-02-01T21:14:41.829Z,97802.44
2023-02-01T21:17:08.697Z,97802.09
2023-02-01T21:19:44.528Z,97806.13
2023-02-01T21:22:13.290Z,97804.31
2023-02-01T21:24:43.506Z,97803.81
2023-02-01T21:27:10.461Z,97802.25
2023-02-01T21:29:37.613Z,97801.69
2023-02-01T21:32:06.762Z,97795.22
2023-02-01T21:34:35.047Z,97798.19
2023-02-01T21:37:02.584Z,97790.81
2023-02-01T21:39:29.445Z,97798.00
2023-02-01T21:42:16.694Z,97799.19
2023-02-01T21:44:48.424Z,97800.97
2023-02-01T21:47:17.926Z,97808.72
2023-02-01T21:49:46.617Z,97805.94
2023-02-01T21:52:15.710Z,97806.22
2023-02-01T21:54:42.602Z,97806.25
2023-02-01T21:57:12.073Z,97805.22
2023-02-01T21:59:41.137Z,97808.91
2023-02-01T22:02:13.260Z,97806.38
2023-02-01T22:04:40.379Z,97810.22
2023-02-01T22:07:07.700Z,97811.66
2023-02-01T22:09:34.795Z,97813.97
2023-02-01T22:12:01.849Z,97807.53
2023-02-01T22:14:28.978Z,97807.75
2023-02-01T22:16:56.525Z,97805.88
2023-02-01T22:19:23.531Z,97805.72
2023-02-01T22:21:50.458Z,97805.28
2023-02-01T22:24:21.086Z,97798.00
2023-02-01T22:26:48.724Z,97794.75
2023-02-01T22:29:17.253Z,97792.59
2023-02-01T22:31:44.276Z,97787.41
2023-02-01T22:34:12.302Z,97788.03
2023-02-01T22:36:40.209Z,97787.09
2023-02-01T22:39:07.482Z,97794.09
2023-02-01T22:41:34.689Z,97800.16
2023-02-01T22:44:01.652Z,97800.59
2023-02-01T22:46:31.341Z,97797.50
2023-02-01T22:48:59.427Z,97802.56
2023-02-01T22:51:31.180Z,97795.97
2023-02-01T22:53:58.462Z,97791.53
2023-02-01T22:56:31.731Z,97789.56
2023-02-01T22:59:00.769Z,97789.44
2023-02-01T23:01:28.892Z,97787.50
2023-02-01T23:03:59.935Z,97779.22
2023-02-01T23:06:27.174Z,97788.78
2023-02-01T23:08:56.607Z,97783.63
2023-02-01T23:11:24.643Z,97782.41
2023-02-01T23:13:52.513Z,97775.91
2023-02-01T23:16:19.888Z,97782.63
2023-02-01T23:18:46.871Z,97775.78
2023-02-01T23:21:19.365Z,97775.19
2023-02-01T23:23:54.333Z,97773.28
2023-02-01T23:26:23.106Z,97771.09
2023-02-01T23:28:52.334Z,97765.25
2023-02-01T23:31:19.318Z,97770.94
2023-02-01T23:33:46.934Z,97780.06
2023-02-01T23:36:17.847Z,97779.34
2023-02-01T23:38:45.389Z,97779.19
2023-02-01T23:41:14.144Z,97777.00
2023-02-01T23:44:00.709Z,97772.66
2023-02-01T23:46:34.742Z,97762.72
2023-02-01T23:49:03.253Z,97761.16
2023-02-01T23:51:30.974Z,97755.91
2023-02-01T23:53:58.892Z,97753.38
2023-02-01T23:56:33.439Z,97757.31
2023-02-01T23:59:02.332Z,97753.53
